Latest Weather Observations for Horn Island

IDQ60801

Issued at 6:02 pm EST Wednesday 18 January 2017 (issued every 30 minutes, with the page automatically refreshed every 10 minutes)

About weather observations | Map of weather stations | Latest weather observations for QLD | Other Formats
Station Details ID: 027058 Name: HORN ISLAND Lat: -10.58 Lon: 142.29 Height: 4.0 m
Data from the previous 72 hours. | See also: Recent months at Horn Island
Date/Time
EST
Temp
°C
App
Temp
°C
Dew
Point
°C
Rel
Hum
%
Delta-T
°C
Wind Press
QNH
hPa
Press
MSL
hPa
Rain since
9am
mm
Dir  Spd
km/h
Gust
km/h
Spd
kts
Gust
kts
18/06:00pm 28.7 33.5 25.1 81 2.5 SW 9 11 5 6 1009.8 1009.8 1.8
18/05:30pm 29.0 33.5 24.6 77 3.1 SSW 9 13 5 7 1009.2 - 1.8
18/05:00pm 29.0 33.6 24.1 75 3.4 SSW 7 11 4 6 1009.1 - 1.8
18/04:30pm 27.9 32.1 24.1 80 2.6 SSW 9 11 5 6 1008.7 - 1.8
18/04:00pm 28.2 32.7 24.6 81 2.5 SW 9 13 5 7 1008.8 - 1.8
18/03:30pm 27.6 31.5 24.2 82 2.4 SSW 11 15 6 8 1009.1 - 1.8
18/03:04pm 27.3 30.8 23.5 80 2.6 SSW 11 17 6 9 1009.3 - 1.8
18/03:00pm 27.7 31.5 24.1 81 2.5 SSW 11 19 6 10 1009.4 1009.4 1.8
18/02:46pm 28.3 31.9 23.7 76 3.2 SW 11 17 6 9 1009.7 - 1.8
18/02:30pm 29.5 32.9 24.1 72 3.7 N 13 19 7 10 1009.5 - 1.8
18/02:00pm 30.5 34.5 25.1 73 3.8 N 13 19 7 10 1009.9 - 1.8
18/01:30pm 30.3 34.9 25.4 75 3.5 NNW 11 15 6 8 1010.1 - 1.8
18/01:00pm 29.7 33.9 24.1 72 3.9 N 9 15 5 8 1010.6 - 1.8
18/12:30pm 28.1 33.9 23.9 78 2.9 CALM 0 0 0 0 1011.1 - 1.8
18/12:00pm 27.4 32.8 25.2 88 1.5 S 6 7 3 4 1011.7 1011.7 1.8
18/11:30am 26.8 30.8 23.7 83 2.1 SSE 9 13 5 7 1012.1 - 1.8
18/11:21am 26.8 30.5 23.3 81 2.4 S 9 15 5 8 1012.0 - 1.8
18/11:01am 27.7 32.0 24.3 82 2.4 N 9 13 5 7 1012.2 - 1.0
18/11:00am 27.8 32.2 24.4 82 2.4 N 9 13 5 7 1012.2 - 0.8
18/10:30am 28.8 33.9 24.6 78 2.9 SSW 6 11 3 6 1012.7 - 0.2
18/10:00am 27.2 30.5 23.9 82 2.3 S 13 15 7 8 1012.8 - 0.2
18/09:30am 27.8 31.4 24.4 82 2.4 E 13 20 7 11 1012.9 - 0.0
18/09:00am 28.8 33.4 24.1 76 3.3 N 7 11 4 6 1012.8 1012.8 0.0
18/08:30am 29.1 34.1 23.8 73 3.7 E 4 9 2 5 1012.9 - 0.0
18/08:00am 28.5 33.8 24.3 78 2.9 SE 4 7 2 4 1012.5 - 0.0
18/07:30am 27.3 33.8 25.1 88 1.5 CALM 0 0 0 0 1012.1 - 0.0
18/07:00am 26.2 32.8 25.3 95 0.6 CALM 0 0 0 0 1011.8 - 0.0
18/06:30am 25.5 31.8 24.8 96 0.5 CALM 0 7 0 4 1011.5 - 0.0
18/06:00am 25.7 32.2 25.0 96 0.5 CALM 0 0 0 0 1011.2 1011.2 0.0
18/05:30am 25.5 30.7 24.8 96 0.5 SE 6 7 3 4 1010.7 - 0.0
18/05:00am 25.5 31.7 24.6 95 0.6 CALM 0 7 0 4 1010.3 - 0.0
18/04:30am 25.6 31.8 24.6 94 0.7 CALM 0 0 0 0 1009.9 - 0.0
18/04:00am 25.8 32.1 24.8 94 0.7 CALM 0 0 0 0 1009.9 - 0.0
18/03:30am 25.9 32.2 24.7 93 0.8 CALM 0 0 0 0 1009.9 - 0.0
18/03:00am 26.0 32.1 24.4 91 1.1 CALM 0 0 0 0 1010.0 1010.0 0.0
18/02:30am 26.8 32.4 24.8 89 1.4 E 4 7 2 4 1010.1 - 0.0
18/02:00am 27.2 32.4 24.8 87 1.7 E 6 7 3 4 1010.5 - 0.0
18/01:30am 27.1 32.0 24.6 86 1.7 E 7 9 4 5 1010.9 - 0.0
18/01:00am 27.4 31.3 24.8 86 1.8 E 13 17 7 9 1011.1 - 0.0
18/12:30am 27.3 31.5 25.3 89 1.4 E 13 17 7 9 1011.6 - 0.0
18/12:00am 26.5 32.8 24.7 90 1.3 CALM 0 0 0 0 1011.7 1011.7 0.0
 
Date/Time
EST
Temp
°C
App
Temp
°C
Dew
Point
°C
Rel
Hum
%
Delta-T
°C
Wind Press
QNH
hPa
Press
MSL
hPa
Rain since
9am
mm
Dir  Spd
km/h
Gust
km/h
Spd
kts
Gust
kts
17/11:30pm 26.3 31.1 24.5 90 1.2 SE 7 9 4 5 1011.9 - 0.0
17/11:00pm 26.2 32.1 24.1 88 1.4 CALM 0 0 0 0 1012.5 - 0.0
17/10:30pm 26.0 30.7 23.9 88 1.4 SE 6 9 3 5 1012.6 - 0.0
17/10:00pm 26.5 32.5 24.3 88 1.5 CALM 0 6 0 3 1012.6 - 0.0
17/09:30pm 26.7 32.7 24.2 86 1.7 CALM 0 0 0 0 1012.5 - 0.0
17/09:00pm 27.3 33.4 24.4 84 2.0 CALM 0 0 0 0 1012.0 1012.0 0.0
17/08:30pm 27.0 32.7 23.7 82 2.3 CALM 0 0 0 0 1011.7 - 0.0
17/08:00pm 27.6 33.2 23.6 79 2.7 CALM 0 0 0 0 1011.4 - 0.0
17/07:30pm 28.0 32.7 23.4 76 3.2 S 4 6 2 3 1010.9 - 0.0
17/07:00pm 28.6 34.2 23.5 74 3.5 CALM 0 2 0 1 1010.4 - 0.0
17/06:30pm 28.9 33.0 22.9 70 4.1 W 6 9 3 5 1009.9 - 0.0
17/06:00pm 29.2 31.9 22.2 66 4.7 WSW 11 17 6 9 1010.1 1010.1 0.0
17/05:30pm 30.2 32.7 21.8 60 5.7 NNW 11 17 6 9 1009.0 - 0.0
17/05:00pm 30.6 32.5 21.4 58 6.2 NNW 13 19 7 10 1008.6 - 0.0
17/04:30pm 30.3 32.8 22.5 63 5.3 NNW 13 17 7 9 1008.2 - 0.0
17/04:00pm 30.2 32.3 22.4 63 5.3 NNW 15 19 8 10 1008.3 - 0.0
17/03:30pm 30.8 32.8 22.9 62 5.4 NNW 17 20 9 11 1008.4 - 0.0
17/03:00pm 30.2 33.6 23.4 67 4.7 N 11 17 6 9 1008.5 1008.5 0.0
17/02:30pm 30.2 33.4 22.4 63 5.3 N 9 15 5 8 1008.7 - 0.0
17/02:00pm 30.7 33.4 22.8 62 5.4 NNW 13 19 7 10 1009.1 - 0.0
17/01:30pm 30.6 32.9 21.4 58 6.2 N 11 15 6 8 1009.6 - 0.0
17/01:00pm 30.7 32.9 21.8 59 6.0 NNW 13 15 7 8 1010.3 - 0.0
17/12:30pm 30.7 34.3 22.3 61 5.7 WNW 7 15 4 8 1010.8 - 0.0
17/12:00pm 30.3 33.6 22.5 63 5.3 W 9 15 5 8 1011.1 1011.1 0.0
17/11:30am 29.8 32.2 21.5 61 5.6 W 11 17 6 9 1011.4 - 0.0
17/11:00am 29.0 31.4 22.2 66 4.6 WSW 13 15 7 8 1011.6 - 0.0
17/10:30am 28.6 32.1 22.8 71 3.9 WSW 9 13 5 7 1011.9 - 0.0
17/10:00am 27.6 31.7 23.2 77 3.0 SSW 7 13 4 7 1012.2 - 0.0
17/09:30am 27.3 31.4 24.6 85 1.9 WSW 11 17 6 9 1012.5 - 0.0
17/09:00am 26.4 30.2 24.1 87 1.6 WSW 11 17 6 9 1012.9 1012.9 2.0
17/08:30am 27.1 33.1 26.4 96 0.5 W 7 11 4 6 1012.7 - 2.0
17/08:00am 26.4 33.4 25.9 97 0.4 CALM 0 0 0 0 1012.1 - 2.0
17/07:30am 25.9 32.6 25.4 97 0.3 CALM 0 0 0 0 1011.9 - 1.8
17/07:00am 25.7 32.2 25.0 96 0.5 CALM 0 0 0 0 1011.3 - 1.8
17/06:30am 25.8 32.2 24.9 95 0.6 CALM 0 0 0 0 1010.7 - 1.8
17/06:00am 26.0 32.3 24.8 93 0.8 CALM 0 0 0 0 1010.2 1010.2 1.6
17/05:30am 25.8 30.9 24.0 90 1.2 NE 4 7 2 4 1009.7 - 1.2
17/05:00am 25.6 29.5 23.6 89 1.4 ENE 9 13 5 7 1009.0 - 1.2
17/04:30am 25.5 29.0 23.6 89 1.3 NE 11 17 6 9 1009.1 - 1.2
17/04:00am 25.3 29.3 23.7 91 1.1 ENE 9 11 5 6 1008.9 - 1.2
17/03:30am 25.0 29.0 22.7 87 1.5 SE 6 7 3 4 1008.8 - 1.2
17/03:00am 24.9 28.1 22.4 86 1.7 SSE 9 11 5 6 1008.9 1008.9 1.2
17/02:30am 25.1 25.9 22.4 85 1.8 SSW 22 28 12 15 1009.2 - 1.2
17/02:00am 26.7 33.6 25.7 94 0.7 CALM 0 0 0 0 1009.2 - 0.0
17/01:30am 26.6 33.4 25.6 94 0.7 CALM 0 0 0 0 1009.7 - 0.0
17/01:00am 26.7 33.5 25.5 93 0.8 CALM 0 0 0 0 1010.0 - 0.0
17/12:30am 26.6 32.9 25.4 93 0.8 ESE 2 6 1 3 1010.3 - 0.0
17/12:00am 26.6 32.0 25.2 92 1.0 ESE 6 6 3 3 1010.5 1010.5 0.0
 
Date/Time
EST
Temp
°C
App
Temp
°C
Dew
Point
°C
Rel
Hum
%
Delta-T
°C
Wind Press
QNH
hPa
Press
MSL
hPa
Rain since
9am
mm
Dir  Spd
km/h
Gust
km/h
Spd
kts
Gust
kts
16/11:30pm 26.6 32.0 25.2 92 1.0 ESE 6 7 3 4 1010.7 - 0.0
16/11:00pm 26.8 32.2 25.2 91 1.1 ESE 6 6 3 3 1010.7 - 0.0
16/10:30pm 26.7 31.8 24.9 90 1.3 ESE 7 7 4 4 1010.2 - 0.0
16/10:00pm 27.0 32.3 25.0 89 1.4 ESE 6 7 3 4 1010.1 - 0.0
16/09:30pm 27.0 33.3 24.8 88 1.5 CALM 0 0 0 0 1009.7 - 0.0
16/09:00pm 27.2 33.2 24.8 87 1.7 SE 2 6 1 3 1009.3 1009.3 0.0
16/08:30pm 27.3 33.6 24.7 86 1.8 CALM 0 0 0 0 1009.2 - 0.0
16/08:00pm 27.5 33.5 24.3 83 2.2 CALM 0 6 0 3 1008.8 - 0.0
16/07:30pm 27.7 32.5 24.1 81 2.5 SW 6 9 3 5 1008.4 - 0.0
16/07:00pm 28.4 32.5 24.0 77 3.0 W 9 13 5 7 1008.1 - 0.0
16/06:30pm 28.8 32.3 23.5 73 3.6 W 11 15 6 8 1008.0 - 0.0
16/06:00pm 29.0 32.4 23.4 72 3.9 W 11 17 6 9 1007.5 1007.5 0.0
16/05:30pm 29.8 33.4 24.4 73 3.8 WNW 13 20 7 11 1007.1 - 0.0
16/05:00pm 30.1 33.5 23.3 67 4.7 WNW 11 17 6 9 1006.7 - 0.0
16/04:30pm 29.9 33.1 24.3 72 3.9 WNW 15 20 8 11 1006.5 - 0.0
16/04:00pm 29.9 33.1 24.3 72 3.9 WNW 15 22 8 12 1006.6 - 0.0
16/03:30pm 30.5 33.5 24.6 70 4.1 WNW 17 26 9 14 1006.8 - 0.0
16/03:00pm 30.9 32.7 23.3 64 5.2 NW 19 24 10 13 1007.1 1007.1 0.0
16/02:30pm 30.9 33.1 23.3 64 5.2 NW 17 26 9 14 1007.2 - 0.0
16/02:00pm 30.3 33.1 23.7 68 4.6 NW 15 20 8 11 1007.7 - 0.0
16/01:30pm 30.4 33.7 24.5 70 4.1 NNW 15 20 8 11 1008.4 - 0.0
16/01:00pm 30.0 34.6 25.3 76 3.3 NNW 11 17 6 9 1008.5 - 0.0
16/12:30pm 29.6 33.3 24.5 74 3.6 NNW 13 17 7 9 1009.0 - 0.0
16/12:00pm 29.5 33.4 24.8 76 3.3 NNW 13 19 7 10 1009.4 1009.4 0.0
16/11:30am 29.6 33.7 24.5 74 3.6 NNW 11 17 6 9 1009.6 - 0.0
16/11:00am 29.6 33.7 24.5 74 3.6 NW 11 17 6 9 1009.9 - 0.0
16/10:30am 29.3 33.4 24.6 76 3.3 NNW 11 17 6 9 1010.0 - 0.0
16/10:00am 29.1 33.6 24.6 76 3.1 NNW 9 13 5 7 1010.0 - 0.0
16/09:30am 29.5 35.0 25.3 78 3.0 NNW 6 15 3 8 1009.7 - 0.0
16/09:18am 29.1 33.9 25.1 79 2.8 W 9 13 5 7 1009.7 - 0.0
16/09:02am 28.5 34.1 24.9 81 2.5 W 4 7 2 4 1009.7 - 0.0
16/09:00am 28.4 33.6 24.8 81 2.5 W 6 7 3 4 1009.7 1009.7 0.4
16/08:30am 27.4 34.1 25.4 89 1.4 CALM 0 7 0 4 1009.5 - 0.4
16/08:00am 26.6 33.6 26.4 99 0.1 SE 2 6 1 3 1009.2 - 0.4
16/07:30am 26.0 33.0 25.8 99 0.1 CALM 0 0 0 0 1008.8 - 0.2
16/07:00am 25.4 32.0 25.2 99 0.1 CALM 0 0 0 0 1008.6 - 0.2
16/06:30am 25.0 31.3 24.8 99 0.1 CALM 0 0 0 0 1008.2 - 0.2
16/06:00am 24.8 31.0 24.6 99 0.1 CALM 0 0 0 0 1007.9 1007.9 0.2
16/05:30am 24.8 31.0 24.6 99 0.1 CALM 0 0 0 0 1007.4 - 0.2
16/05:00am 24.7 30.8 24.4 98 0.2 CALM 0 0 0 0 1006.9 - 0.2
16/04:30am 24.8 29.6 24.5 98 0.2 ESE 7 9 4 5 1006.7 - 0.2
16/04:00am 24.8 30.9 24.5 98 0.2 CALM 0 0 0 0 1006.8 - 0.2
16/03:30am 24.8 30.8 24.3 97 0.3 CALM 0 0 0 0 1006.9 - 0.2
16/03:00am 25.0 31.1 24.5 97 0.3 CALM 0 0 0 0 1007.2 1007.2 0.2
16/02:30am 25.1 31.3 24.6 97 0.3 CALM 0 0 0 0 1007.6 - 0.2
16/02:00am 25.2 31.5 24.7 97 0.3 CALM 0 0 0 0 1007.9 - 0.2
16/01:30am 25.3 31.6 24.8 97 0.3 CALM 0 0 0 0 1008.2 - 0.2
16/01:00am 25.2 31.3 24.5 96 0.5 CALM 0 0 0 0 1008.4 - 0.2
16/12:30am 25.3 31.0 24.4 95 0.6 SSE 2 6 1 3 1008.8 - 0.2
16/12:00am 25.3 31.4 24.4 95 0.6 CALM 0 0 0 0 1009.3 1009.3 0.2
 
Date/Time
EST
Temp
°C
App
Temp
°C
Dew
Point
°C
Rel
Hum
%
Delta-T
°C
Wind Press
QNH
hPa
Press
MSL
hPa
Rain since
9am
mm
Dir  Spd
km/h
Gust
km/h
Spd
kts
Gust
kts
15/11:30pm 25.6 30.7 24.7 95 0.6 SE 6 7 3 4 1009.3 - 0.2
15/11:00pm 25.6 31.1 24.6 94 0.7 S 4 9 2 5 1009.4 - 0.2
15/10:30pm 26.0 32.3 24.8 93 0.8 CALM 0 6 0 3 1009.2 - 0.2
15/10:00pm 25.9 32.0 24.5 92 1.0 CALM 0 0 0 0 1008.8 - 0.2
15/09:30pm 26.0 30.9 24.6 92 1.0 S 7 9 4 5 1008.3 - 0.2
15/09:00pm 26.4 32.6 24.6 90 1.2 CALM 0 0 0 0 1008.1 1008.1 0.2
15/08:30pm 26.6 31.5 24.6 89 1.4 SW 7 9 4 5 1008.1 - 0.2
15/08:00pm 26.8 31.2 24.5 87 1.6 SW 9 13 5 7 1008.0 - 0.2
15/07:30pm 26.9 30.4 24.2 85 1.9 W 13 19 7 10 1008.0 - 0.2
15/07:00pm 27.1 31.1 24.4 85 1.9 W 11 20 6 11 1007.6 - 0.2
15/06:30pm 27.2 30.0 24.3 84 2.0 W 17 26 9 14 1007.7 - 0.2

Other Formats:

Comma delimited format used in spreadsheet applications
http://www.bom.gov.au/fwo/IDQ60801/IDQ60801.94174.axf

JavaScript Object Notation format (JSON) in row-major order
http://www.bom.gov.au/fwo/IDQ60801/IDQ60801.94174.json